sensor_id;sensor_type;location;lat;lon;timestamp;pressure;altitude;pressure_sealevel;temperature;humidity
20630;BME280;17386;43.846;25.950;2023-05-09T00:02:10;101963.50;;;10.61;100.00
20630;BME280;17386;43.846;25.950;2023-05-09T00:04:35;101951.97;;;10.61;100.00
20630;BME280;17386;43.846;25.950;2023-05-09T00:07:01;101957.16;;;10.68;100.00
20630;BME280;17386;43.846;25.950;2023-05-09T00:09:26;101965.00;;;10.76;100.00
20630;BME280;17386;43.846;25.950;2023-05-09T00:11:52;101964.31;;;10.65;100.00
20630;BME280;17386;43.846;25.950;2023-05-09T00:14:17;101969.47;;;10.74;100.00
20630;BME280;17386;43.846;25.950;2023-05-09T00:16:44;101970.41;;;10.72;100.00
20630;BME280;17386;43.846;25.950;2023-05-09T00:19:09;101971.44;;;10.63;100.00
20630;BME280;17386;43.846;25.950;2023-05-09T00:21:35;101974.97;;;10.65;100.00
20630;BME280;17386;43.846;25.950;2023-05-09T00:24:00;101968.66;;;10.71;100.00
20630;BME280;17386;43.846;25.950;2023-05-09T00:26:26;101976.59;;;10.74;100.00
20630;BME280;17386;43.846;25.950;2023-05-09T00:28:52;101977.53;;;10.69;100.00
20630;BME280;17386;43.846;25.950;2023-05-09T00:31:19;101974.91;;;10.68;100.00
20630;BME280;17386;43.846;25.950;2023-05-09T00:33:44;101977.59;;;10.66;100.00
20630;BME280;17386;43.846;25.950;2023-05-09T00:36:10;101970.63;;;10.59;100.00
20630;BME280;17386;43.846;25.950;2023-05-09T00:38:35;101967.91;;;10.62;100.00
20630;BME280;17386;43.846;25.950;2023-05-09T00:41:01;101970.66;;;10.56;100.00
20630;BME280;17386;43.846;25.950;2023-05-09T00:43:26;101970.66;;;10.56;100.00
20630;BME280;17386;43.846;25.950;2023-05-09T00:45:51;101970.78;;;10.49;100.00
20630;BME280;17386;43.846;25.950;2023-05-09T00:48:17;101974.31;;;10.49;100.00
20630;BME280;17386;43.846;25.950;2023-05-09T00:50:42;101983.31;;;10.40;100.00
20630;BME280;17386;43.846;25.950;2023-05-09T00:53:08;101980.78;;;10.31;100.00
20630;BME280;17386;43.846;25.950;2023-05-09T00:55:34;101986.91;;;10.35;100.00
20630;BME280;17386;43.846;25.950;2023-05-09T00:58:00;101993.13;;;10.37;100.00
20630;BME280;17386;43.846;25.950;2023-05-09T01:00:27;101967.53;;;10.28;100.00
20630;BME280;17386;43.846;25.950;2023-05-09T01:02:54;101993.03;;;10.41;100.00
20630;BME280;17386;43.846;25.950;2023-05-09T01:05:21;101983.31;;;10.40;100.00
20630;BME280;17386;43.846;25.950;2023-05-09T01:07:51;101977.13;;;10.40;100.00
20630;BME280;17386;43.846;25.950;2023-05-09T01:13:26;101979.78;;;10.40;100.00
20630;BME280;17386;43.846;25.950;2023-05-09T01:16:12;101978.91;;;10.39;100.00
20630;BME280;17386;43.846;25.950;2023-05-09T01:18:49;101977.94;;;10.45;100.00
20630;BME280;17386;43.846;25.950;2023-05-09T01:21:29;101983.25;;;10.45;100.00
20630;BME280;17386;43.846;25.950;2023-05-09T01:26:43;101968.13;;;10.49;100.00
20630;BME280;17386;43.846;25.950;2023-05-09T01:29:38;101977.91;;;10.47;100.00
20630;BME280;17386;43.846;25.950;2023-05-09T01:32:08;101985.06;;;10.41;100.00
20630;BME280;17386;43.846;25.950;2023-05-09T01:34:34;101986.91;;;10.38;100.00
20630;BME280;17386;43.846;25.950;2023-05-09T01:37:00;101992.13;;;10.43;100.00
20630;BME280;17386;43.846;25.950;2023-05-09T01:39:28;101994.81;;;10.41;100.00
20630;BME280;17386;43.846;25.950;2023-05-09T01:41:55;101987.03;;;10.27;100.00
20630;BME280;17386;43.846;25.950;2023-05-09T01:44:22;101993.22;;;10.28;100.00
20630;BME280;17386;43.846;25.950;2023-05-09T01:46:50;101983.59;;;10.19;100.00
20630;BME280;17386;43.846;25.950;2023-05-09T01:49:17;101978.34;;;10.14;100.00
20630;BME280;17386;43.846;25.950;2023-05-09T01:51:45;101986.31;;;10.13;100.00
20630;BME280;17386;43.846;25.950;2023-05-09T01:54:12;101978.28;;;10.19;100.00
20630;BME280;17386;43.846;25.950;2023-05-09T01:56:39;101971.28;;;10.12;100.00
20630;BME280;17386;43.846;25.950;2023-05-09T01:59:06;101974.75;;;10.19;100.00
20630;BME280;17386;43.846;25.950;2023-05-09T02:01:32;101974.78;;;10.14;100.00
20630;BME280;17386;43.846;25.950;2023-05-09T02:03:59;101973.03;;;10.14;100.00
20630;BME280;17386;43.846;25.950;2023-05-09T02:06:26;101976.47;;;10.21;100.00
20630;BME280;17386;43.846;25.950;2023-05-09T02:08:54;101976.44;;;10.26;100.00
20630;BME280;17386;43.846;25.950;2023-05-09T02:11:21;101980.88;;;10.22;100.00
20630;BME280;17386;43.846;25.950;2023-05-09T02:13:46;101974.75;;;10.19;100.00
20630;BME280;17386;43.846;25.950;2023-05-09T02:16:12;101984.44;;;10.24;100.00
20630;BME280;17386;43.846;25.950;2023-05-09T02:18:38;101987.03;;;10.27;100.00
20630;BME280;17386;43.846;25.950;2023-05-09T02:21:03;101978.19;;;10.27;100.00
20630;BME280;17386;43.846;25.950;2023-05-09T02:23:30;101986.16;;;10.27;100.00
20630;BME280;17386;43.846;25.950;2023-05-09T02:25:56;101975.66;;;10.18;100.00
20630;BME280;17386;43.846;25.950;2023-05-09T02:28:22;101977.44;;;10.15;100.00
20630;BME280;17386;43.846;25.950;2023-05-09T02:30:51;101981.00;;;10.14;100.00
20630;BME280;17386;43.846;25.950;2023-05-09T02:33:17;101978.34;;;10.16;100.00
20630;BME280;17386;43.846;25.950;2023-05-09T02:35:46;101984.44;;;10.21;100.00
20630;BME280;17386;43.846;25.950;2023-05-09T02:38:14;101985.38;;;10.19;100.00
20630;BME280;17386;43.846;25.950;2023-05-09T02:40:41;101987.97;;;10.25;100.00
20630;BME280;17386;43.846;25.950;2023-05-09T02:43:07;101988.81;;;10.27;100.00
20630;BME280;17386;43.846;25.950;2023-05-09T02:45:33;101987.13;;;10.23;100.00
20630;BME280;17386;43.846;25.950;2023-05-09T02:47:58;101992.38;;;10.26;100.00
20630;BME280;17386;43.846;25.950;2023-05-09T02:50:24;101992.31;;;10.30;100.00
20630;BME280;17386;43.846;25.950;2023-05-09T02:52:49;101992.44;;;10.23;100.00
20630;BME280;17386;43.846;25.950;2023-05-09T02:55:15;101987.09;;;10.21;100.00
20630;BME280;17386;43.846;25.950;2023-05-09T02:57:40;101989.72;;;10.26;100.00
20630;BME280;17386;43.846;25.950;2023-05-09T03:00:06;101990.63;;;10.22;100.00
20630;BME280;17386;43.846;25.950;2023-05-09T03:02:35;101988.00;;;10.20;100.00
20630;BME280;17386;43.846;25.950;2023-05-09T03:05:01;101999.50;;;10.21;100.00
20630;BME280;17386;43.846;25.950;2023-05-09T03:07:27;101994.19;;;10.21;100.00
20630;BME280;17386;43.846;25.950;2023-05-09T03:09:53;101995.97;;;10.23;100.00
20630;BME280;17386;43.846;25.950;2023-05-09T03:12:18;101989.78;;;10.23;100.00
20630;BME280;17386;43.846;25.950;2023-05-09T03:14:44;102004.75;;;10.27;100.00
20630;BME280;17386;43.846;25.950;2023-05-09T03:17:09;102003.88;;;10.26;100.00
20630;BME280;17386;43.846;25.950;2023-05-09T03:19:35;102010.06;;;10.27;100.00
20630;BME280;17386;43.846;25.950;2023-05-09T03:22:00;102011.84;;;10.26;100.00
20630;BME280;17386;43.846;25.950;2023-05-09T03:24:26;102018.84;;;10.32;100.00
20630;BME280;17386;43.846;25.950;2023-05-09T03:26:54;102021.53;;;10.29;100.00
20630;BME280;17386;43.846;25.950;2023-05-09T03:29:19;102030.47;;;10.22;100.00
20630;BME280;17386;43.846;25.950;2023-05-09T03:31:45;102038.44;;;10.25;100.00
20630;BME280;17386;43.846;25.950;2023-05-09T03:34:10;102035.72;;;10.28;100.00
20630;BME280;17386;43.846;25.950;2023-05-09T03:36:40;102045.50;;;10.26;100.00
20630;BME280;17386;43.846;25.950;2023-05-09T03:39:06;102040.16;;;10.27;100.00
20630;BME280;17386;43.846;25.950;2023-05-09T03:41:32;102041.97;;;10.21;100.00
20630;BME280;17386;43.846;25.950;2023-05-09T03:44:00;102045.44;;;10.29;100.00
20630;BME280;17386;43.846;25.950;2023-05-09T03:46:25;102057.06;;;10.19;100.00
20630;BME280;17386;43.846;25.950;2023-05-09T03:48:50;102060.53;;;10.22;100.00
20630;BME280;17386;43.846;25.950;2023-05-09T03:51:16;102058.84;;;10.18;100.00
20630;BME280;17386;43.846;25.950;2023-05-09T03:53:44;102072.13;;;10.23;100.00
20630;BME280;17386;43.846;25.950;2023-05-09T03:56:10;102058.81;;;10.20;100.00
20630;BME280;17386;43.846;25.950;2023-05-09T03:58:35;102077.34;;;10.27;100.00
20630;BME280;17386;43.846;25.950;2023-05-09T04:01:01;102074.75;;;10.24;100.00
20630;BME280;17386;43.846;25.950;2023-05-09T04:03:26;102074.75;;;10.24;100.00
20630;BME280;17386;43.846;25.950;2023-05-09T04:05:52;102091.56;;;10.25;100.00
20630;BME280;17386;43.846;25.950;2023-05-09T04:08:18;102092.38;;;10.30;100.00
20630;BME280;17386;43.846;25.950;2023-05-09T04:10:43;102086.19;;;10.28;100.00
20630;BME280;17386;43.846;25.950;2023-05-09T04:13:08;102092.38;;;10.30;100.00
20630;BME280;17386;43.846;25.950;2023-05-09T04:15:34;102085.41;;;10.23;100.00
20630;BME280;17386;43.846;25.950;2023-05-09T04:17:59;102085.34;;;10.26;100.00
20630;BME280;17386;43.846;25.950;2023-05-09T04:20:25;102096.00;;;10.24;100.00
20630;BME280;17386;43.846;25.950;2023-05-09T04:22:50;102095.03;;;10.30;100.00
20630;BME280;17386;43.846;25.950;2023-05-09T04:25:15;102094.25;;;10.23;100.00
20630;BME280;17386;43.846;25.950;2023-05-09T04:27:41;102097.81;;;10.18;100.00
20630;BME280;17386;43.846;25.950;2023-05-09T04:30:07;102100.38;;;10.22;100.00
20630;BME280;17386;43.846;25.950;2023-05-09T04:32:33;102095.97;;;10.26;100.00
20630;BME280;17386;43.846;25.950;2023-05-09T04:34:59;102097.72;;;10.22;100.00
20630;BME280;17386;43.846;25.950;2023-05-09T04:37:25;102096.84;;;10.22;100.00
20630;BME280;17386;43.846;25.950;2023-05-09T04:39:50;102101.28;;;10.21;100.00
20630;BME280;17386;43.846;25.950;2023-05-09T04:42:16;102098.59;;;10.27;100.00
20630;BME280;17386;43.846;25.950;2023-05-09T04:44:41;102099.38;;;10.34;100.00
20630;BME280;17386;43.846;25.950;2023-05-09T04:47:06;102102.91;;;10.37;100.00
20630;BME280;17386;43.846;25.950;2023-05-09T04:49:32;102114.34;;;10.41;100.00
20630;BME280;17386;43.846;25.950;2023-05-09T04:51:57;102112.69;;;10.34;100.00
20630;BME280;17386;43.846;25.950;2023-05-09T04:54:23;102106.34;;;10.43;100.00
20630;BME280;17386;43.846;25.950;2023-05-09T04:56:48;102110.75;;;10.47;100.00
20630;BME280;17386;43.846;25.950;2023-05-09T04:59:13;102106.34;;;10.43;100.00
20630;BME280;17386;43.846;25.950;2023-05-09T05:01:39;102107.28;;;10.40;100.00
20630;BME280;17386;43.846;25.950;2023-05-09T05:04:05;102102.81;;;10.44;100.00
20630;BME280;17386;43.846;25.950;2023-05-09T05:06:30;102105.41;;;10.48;100.00
20630;BME280;17386;43.846;25.950;2023-05-09T05:08:57;102101.91;;;10.46;100.00
20630;BME280;17386;43.846;25.950;2023-05-09T05:11:22;102111.66;;;10.43;100.00
20630;BME280;17386;43.846;25.950;2023-05-09T05:13:47;102097.38;;;10.53;100.00
20630;BME280;17386;43.846;25.950;2023-05-09T05:16:13;102108.03;;;10.51;100.00
20630;BME280;17386;43.846;25.950;2023-05-09T05:18:38;102108.94;;;10.50;100.00
20630;BME280;17386;43.846;25.950;2023-05-09T05:21:04;102107.06;;;10.55;100.00
20630;BME280;17386;43.846;25.950;2023-05-09T05:23:29;102116.72;;;10.62;100.00
20630;BME280;17386;43.846;25.950;2023-05-09T05:25:54;102110.69;;;10.51;100.00
20630;BME280;17386;43.846;25.950;2023-05-09T05:28:20;102117.78;;;10.49;100.00
20630;BME280;17386;43.846;25.950;2023-05-09T05:30:45;102115.06;;;10.57;100.00
20630;BME280;17386;43.846;25.950;2023-05-09T05:33:11;102108.84;;;10.55;100.00
20630;BME280;17386;43.846;25.950;2023-05-09T05:35:36;102110.63;;;10.54;100.00
20630;BME280;17386;43.846;25.950;2023-05-09T05:38:01;102105.28;;;10.56;100.00
20630;BME280;17386;43.846;25.950;2023-05-09T05:40:27;102117.66;;;10.60;100.00
20630;BME280;17386;43.846;25.950;2023-05-09T05:42:52;102117.53;;;10.67;100.00
20630;BME280;17386;43.846;25.950;2023-05-09T05:45:18;102119.19;;;10.76;100.00
20630;BME280;17386;43.846;25.950;2023-05-09T05:47:44;102118.28;;;10.79;100.00
20630;BME280;17386;43.846;25.950;2023-05-09T05:50:10;102128.13;;;10.72;100.00
20630;BME280;17386;43.846;25.950;2023-05-09T05:52:39;102123.66;;;10.74;100.00
20630;BME280;17386;43.846;25.950;2023-05-09T05:55:06;102120.16;;;10.71;100.00
20630;BME280;17386;43.846;25.950;2023-05-09T05:57:32;102125.47;;;10.72;100.00
20630;BME280;17386;43.846;25.950;2023-05-09T05:59:59;102128.13;;;10.72;100.00
20630;BME280;17386;43.846;25.950;2023-05-09T06:02:25;102126.22;;;10.80;100.00
20630;BME280;17386;43.846;25.950;2023-05-09T06:04:50;102126.22;;;10.80;100.00
20630;BME280;17386;43.846;25.950;2023-05-09T06:07:15;102125.47;;;10.72;100.00
20630;BME280;17386;43.846;25.950;2023-05-09T06:09:41;102118.25;;;10.80;100.00
20630;BME280;17386;43.846;25.950;2023-05-09T06:12:06;102119.06;;;10.84;100.00
20630;BME280;17386;43.846;25.950;2023-05-09T06:14:32;102110.25;;;10.82;100.00
20630;BME280;17386;43.846;25.950;2023-05-09T06:16:58;102094.47;;;10.69;100.00
20630;BME280;17386;43.846;25.950;2023-05-09T06:19:23;102113.69;;;10.88;100.00
20630;BME280;17386;43.846;25.950;2023-05-09T06:21:49;102126.00;;;10.94;100.00
20630;BME280;17386;43.846;25.950;2023-05-09T06:24:15;102119.75;;;10.96;100.00
20630;BME280;17386;43.846;25.950;2023-05-09T06:26:40;102116.16;;;11.01;100.00
20630;BME280;17386;43.846;25.950;2023-05-09T06:29:06;102124.00;;;11.10;100.00
20630;BME280;17386;43.846;25.950;2023-05-09T06:31:32;102124.88;;;11.12;100.00
20630;BME280;17386;43.846;25.950;2023-05-09T06:33:59;102127.53;;;11.10;100.00
20630;BME280;17386;43.846;25.950;2023-05-09T06:36:25;102127.50;;;11.13;100.00
20630;BME280;17386;43.846;25.950;2023-05-09T06:38:51;102122.09;;;11.19;100.00
20630;BME280;17386;43.846;25.950;2023-05-09T06:41:16;102122.91;;;11.21;100.00
20630;BME280;17386;43.846;25.950;2023-05-09T06:43:41;102125.53;;;11.24;100.00
20630;BME280;17386;43.846;25.950;2023-05-09T06:46:07;102122.84;;;11.26;100.00
20630;BME280;17386;43.846;25.950;2023-05-09T06:48:32;102134.22;;;11.36;100.00
20630;BME280;17386;43.846;25.950;2023-05-09T06:50:57;102127.13;;;11.35;100.00
20630;BME280;17386;43.846;25.950;2023-05-09T06:53:23;102127.16;;;11.32;100.00
20630;BME280;17386;43.846;25.950;2023-05-09T06:55:48;102128.78;;;11.42;100.00
20630;BME280;17386;43.846;25.950;2023-05-09T06:58:14;102134.00;;;11.48;100.00
20630;BME280;17386;43.846;25.950;2023-05-09T07:00:39;102129.47;;;11.55;100.00
20630;BME280;17386;43.846;25.950;2023-05-09T07:03:05;102121.34;;;11.62;100.00
20630;BME280;17386;43.846;25.950;2023-05-09T07:05:33;102119.59;;;11.61;100.00
20630;BME280;17386;43.846;25.950;2023-05-09T07:07:59;102134.50;;;11.70;100.00
20630;BME280;17386;43.846;25.950;2023-05-09T07:10:24;102127.25;;;11.78;100.00
20630;BME280;17386;43.846;25.950;2023-05-09T07:12:51;102129.75;;;11.89;100.00
20630;BME280;17386;43.846;25.950;2023-05-09T07:15:16;102127.81;;;11.97;100.00
20630;BME280;17386;43.846;25.950;2023-05-09T07:17:41;102122.41;;;12.00;100.00
20630;BME280;17386;43.846;25.950;2023-05-09T07:20:07;102137.38;;;12.09;100.00
20630;BME280;17386;43.846;25.950;2023-05-09T07:22:33;102130.25;;;12.08;100.00
20630;BME280;17386;43.846;25.950;2023-05-09T07:24:58;102143.56;;;12.09;100.00
20630;BME280;17386;43.846;25.950;2023-05-09T07:27:24;102125.09;;;12.00;100.00
20630;BME280;17386;43.846;25.950;2023-05-09T07:29:49;102137.44;;;12.04;100.00
20630;BME280;17386;43.846;25.950;2023-05-09T07:32:17;102139.00;;;12.14;100.00
20630;BME280;17386;43.846;25.950;2023-05-09T07:34:42;102144.44;;;12.10;100.00
20630;BME280;17386;43.846;25.950;2023-05-09T07:37:08;102143.47;;;12.14;100.00
20630;BME280;17386;43.846;25.950;2023-05-09T07:39:33;102150.59;;;12.12;100.00
20630;BME280;17386;43.846;25.950;2023-05-09T07:41:58;102144.34;;;12.14;100.00
20630;BME280;17386;43.846;25.950;2023-05-09T07:44:24;102138.97;;;12.17;100.00
20630;BME280;17386;43.846;25.950;2023-05-09T07:46:50;102142.34;;;12.25;100.00
20630;BME280;17386;43.846;25.950;2023-05-09T07:49:15;102136.97;;;12.28;100.00
20630;BME280;17386;43.846;25.950;2023-05-09T07:51:40;102147.59;;;12.30;100.00
20630;BME280;17386;43.846;25.950;2023-05-09T07:54:06;102139.47;;;12.35;100.00
20630;BME280;17386;43.846;25.950;2023-05-09T07:56:32;102148.34;;;12.37;100.00
20630;BME280;17386;43.846;25.950;2023-05-09T07:58:57;102134.91;;;12.43;100.00
20630;BME280;17386;43.846;25.950;2023-05-09T08:01:23;102138.31;;;12.48;100.00
20630;BME280;17386;43.846;25.950;2023-05-09T08:03:48;102139.13;;;12.51;100.00
20630;BME280;17386;43.846;25.950;2023-05-09T08:06:13;102138.13;;;12.57;100.00
20630;BME280;17386;43.846;25.950;2023-05-09T08:08:39;102143.47;;;12.57;100.00
20630;BME280;17386;43.846;25.950;2023-05-09T08:11:04;102133.63;;;12.59;100.00
20630;BME280;17386;43.846;25.950;2023-05-09T08:13:30;102137.88;;;12.68;100.00
20630;BME280;17386;43.846;25.950;2023-05-09T08:15:55;102137.84;;;12.71;100.00
20630;BME280;17386;43.846;25.950;2023-05-09T08:18:21;102140.25;;;12.81;100.00
20630;BME280;17386;43.846;25.950;2023-05-09T08:20:46;102132.06;;;12.91;100.00
20630;BME280;17386;43.846;25.950;2023-05-09T08:23:12;102129.28;;;12.94;100.00
20630;BME280;17386;43.846;25.950;2023-05-09T08:25:37;102131.31;;;12.82;100.00
20630;BME280;17386;43.846;25.950;2023-05-09T08:28:03;102115.91;;;12.95;100.00
20630;BME280;17386;43.846;25.950;2023-05-09T08:30:28;102129.81;;;13.09;100.00
20630;BME280;17386;43.846;25.950;2023-05-09T08:32:54;102134.13;;;13.15;100.00
20630;BME280;17386;43.846;25.950;2023-05-09T08:35:20;102127.78;;;13.21;100.00
20630;BME280;17386;43.846;25.950;2023-05-09T08:37:46;102135.84;;;13.18;100.00
20630;BME280;17386;43.846;25.950;2023-05-09T08:40:12;102129.50;;;13.25;100.00
20630;BME280;17386;43.846;25.950;2023-05-09T08:42:39;102112.56;;;13.26;100.00
20630;BME280;17386;43.846;25.950;2023-05-09T08:45:10;102128.09;;;13.44;100.00
20630;BME280;17386;43.846;25.950;2023-05-09T08:47:37;102125.97;;;13.57;100.00
20630;BME280;17386;43.846;25.950;2023-05-09T08:50:03;102118.63;;;13.66;100.00
20630;BME280;17386;43.846;25.950;2023-05-09T08:52:31;102120.94;;;13.80;100.00
20630;BME280;17386;43.846;25.950;2023-05-09T08:54:57;102121.69;;;13.84;100.00
20630;BME280;17386;43.846;25.950;2023-05-09T08:57:22;102116.09;;;13.93;100.00
20630;BME280;17386;43.846;25.950;2023-05-09T08:59:48;102104.34;;;14.00;100.00
20630;BME280;17386;43.846;25.950;2023-05-09T09:02:15;102108.59;;;14.07;100.00
20630;BME280;17386;43.846;25.950;2023-05-09T09:04:41;102114.75;;;14.09;100.00
20630;BME280;17386;43.846;25.950;2023-05-09T09:07:07;102111.06;;;14.13;100.00
20630;BME280;17386;43.846;25.950;2023-05-09T09:09:35;102114.25;;;14.26;100.00
20630;BME280;17386;43.846;25.950;2023-05-09T09:12:03;102121.09;;;14.36;100.00
20630;BME280;17386;43.846;25.950;2023-05-09T09:14:32;102110.47;;;14.35;100.00
20630;BME280;17386;43.846;25.950;2023-05-09T09:17:04;102108.38;;;14.46;100.00
20630;BME280;17386;43.846;25.950;2023-05-09T09:19:32;102116.19;;;14.52;100.00
20630;BME280;17386;43.846;25.950;2023-05-09T09:22:01;102111.94;;;14.45;99.67
20630;BME280;17386;43.846;25.950;2023-05-09T09:24:28;102115.38;;;14.50;100.00
20630;BME280;17386;43.846;25.950;2023-05-09T09:26:54;102115.97;;;14.60;100.00
20630;BME280;17386;43.846;25.950;2023-05-09T09:29:20;102127.28;;;14.69;100.00
20630;BME280;17386;43.846;25.950;2023-05-09T09:31:52;102127.97;;;14.76;100.00
20630;BME280;17386;43.846;25.950;2023-05-09T09:34:20;102133.22;;;14.79;98.88
20630;BME280;17386;43.846;25.950;2023-05-09T09:36:46;102134.13;;;14.78;98.60
20630;BME280;17386;43.846;25.950;2023-05-09T09:39:13;102123.75;;;14.97;99.71
20630;BME280;17386;43.846;25.950;2023-05-09T09:41:39;102105.16;;;15.19;97.98
20630;BME280;17386;43.846;25.950;2023-05-09T09:44:06;102100.03;;;15.39;96.92
20630;BME280;17386;43.846;25.950;2023-05-09T09:46:40;102107.22;;;15.64;95.81
20630;BME280;17386;43.846;25.950;2023-05-09T09:49:10;102103.69;;;15.88;95.61
20630;BME280;17386;43.846;25.950;2023-05-09T09:51:36;102105.00;;;16.01;93.28
20630;BME280;17386;43.846;25.950;2023-05-09T09:54:02;102109.25;;;16.30;91.57
20630;BME280;17386;43.846;25.950;2023-05-09T09:56:39;102108.69;;;16.67;90.69
20630;BME280;17386;43.846;25.950;2023-05-09T09:59:13;102107.78;;;16.92;87.67
20630;BME280;17386;43.846;25.950;2023-05-09T10:02:03;102105.22;;;16.89;88.50
20630;BME280;17386;43.846;25.950;2023-05-09T10:04:33;102103.19;;;16.94;86.52
20630;BME280;17386;43.846;25.950;2023-05-09T10:07:09;102094.16;;;16.97;84.83
20630;BME280;17386;43.846;25.950;2023-05-09T10:09:35;102095.78;;;16.79;84.84
20630;BME280;17386;43.846;25.950;2023-05-09T10:12:06;102095.16;;;16.72;86.77
20630;BME280;17386;43.846;25.950;2023-05-09T10:14:34;102099.88;;;16.87;85.39
20630;BME280;17386;43.846;25.950;2023-05-09T10:17:02;102085.34;;;17.15;82.33
20630;BME280;17386;43.846;25.950;2023-05-09T10:19:28;102093.22;;;17.19;81.82
20630;BME280;17386;43.846;25.950;2023-05-09T10:22:00;102082.50;;;16.98;83.16
20630;BME280;17386;43.846;25.950;2023-05-09T10:25:01;102090.22;;;16.83;85.20
20630;BME280;17386;43.846;25.950;2023-05-09T10:27:30;102091.41;;;16.76;85.71
20630;BME280;17386;43.846;25.950;2023-05-09T10:30:08;102101.81;;;16.60;84.96
20630;BME280;17386;43.846;25.950;2023-05-09T10:32:41;102094.94;;;16.53;85.23
20630;BME280;17386;43.846;25.950;2023-05-09T10:35:10;102096.25;;;16.43;86.29
20630;BME280;17386;43.846;25.950;2023-05-09T10:37:38;102095.69;;;16.35;87.23
20630;BME280;17386;43.846;25.950;2023-05-09T10:40:04;102088.75;;;16.29;87.12
20630;BME280;17386;43.846;25.950;2023-05-09T10:42:30;102084.72;;;16.18;88.24
20630;BME280;17386;43.846;25.950;2023-05-09T10:44:56;102088.41;;;16.15;86.17
20630;BME280;17386;43.846;25.950;2023-05-09T10:47:24;102086.34;;;16.22;85.19
20630;BME280;17386;43.846;25.950;2023-05-09T10:49:51;102096.94;;;16.25;82.81
20630;BME280;17386;43.846;25.950;2023-05-09T10:52:17;102094.50;;;16.89;79.49
20630;BME280;17386;43.846;25.950;2023-05-09T10:54:43;102097.28;;;17.70;75.86
20630;BME280;17386;43.846;25.950;2023-05-09T10:57:08;102089.34;;;17.67;76.85
20630;BME280;17386;43.846;25.950;2023-05-09T10:59:39;102089.69;;;17.60;77.92
20630;BME280;17386;43.846;25.950;2023-05-09T11:02:11;102081.63;;;17.39;79.07
20630;BME280;17386;43.846;25.950;2023-05-09T11:04:38;102085.97;;;17.00;81.64
20630;BME280;17386;43.846;25.950;2023-05-09T11:07:06;102084.47;;;16.92;82.84
20630;BME280;17386;43.846;25.950;2023-05-09T11:10:05;102092.91;;;17.05;81.36
20630;BME280;17386;43.846;25.950;2023-05-09T11:12:31;102091.81;;;17.31;79.78
20630;BME280;17386;43.846;25.950;2023-05-09T11:15:05;102080.75;;;17.39;79.71
20630;BME280;17386;43.846;25.950;2023-05-09T11:17:31;102089.13;;;17.31;79.31
20630;BME280;17386;43.846;25.950;2023-05-09T11:22:32;102081.81;;;17.35;81.12
20630;BME280;17386;43.846;25.950;2023-05-09T11:25:02;102084.91;;;17.26;82.00
20630;BME280;17386;43.846;25.950;2023-05-09T11:30:08;102077.56;;;17.09;82.01
20630;BME280;17386;43.846;25.950;2023-05-09T11:32:44;102081.47;;;16.78;82.01
20630;BME280;17386;43.846;25.950;2023-05-09T11:35:20;102076.34;;;16.94;83.73
20630;BME280;17386;43.846;25.950;2023-05-09T11:38:03;102079.19;;;16.91;82.51
20630;BME280;17386;43.846;25.950;2023-05-09T11:40:30;102069.31;;;16.91;83.15
20630;BME280;17386;43.846;25.950;2023-05-09T11:42:57;102071.69;;;16.99;83.07
20630;BME280;17386;43.846;25.950;2023-05-09T11:45:25;102059.69;;;16.86;83.57
20630;BME280;17386;43.846;25.950;2023-05-09T11:47:52;102071.94;;;16.93;84.17
20630;BME280;17386;43.846;25.950;2023-05-09T11:50:18;102059.34;;;16.95;83.90
20630;BME280;17386;43.846;25.950;2023-05-09T11:52:45;102055.09;;;16.89;83.33
20630;BME280;17386;43.846;25.950;2023-05-09T11:55:19;102061.09;;;16.96;84.14
20630;BME280;17386;43.846;25.950;2023-05-09T11:57:48;102062.31;;;16.87;81.07
20630;BME280;17386;43.846;25.950;2023-05-09T12:00:15;102058.81;;;16.85;81.90
20630;BME280;17386;43.846;25.950;2023-05-09T12:02:43;102065.69;;;16.92;82.38
20630;BME280;17386;43.846;25.950;2023-05-09T12:05:11;102060.31;;;16.92;82.26
20630;BME280;17386;43.846;25.950;2023-05-09T12:07:37;102053.75;;;17.00;80.33
20630;BME280;17386;43.846;25.950;2023-05-09T12:10:07;102050.75;;;17.07;79.38
20630;BME280;17386;43.846;25.950;2023-05-09T12:12:36;102060.03;;;17.20;79.38
20630;BME280;17386;43.846;25.950;2023-05-09T12:15:06;102053.72;;;17.21;79.88
20630;BME280;17386;43.846;25.950;2023-05-09T12:17:33;102049.56;;;17.35;79.53
20630;BME280;17386;43.846;25.950;2023-05-09T12:19:59;102036.69;;;17.22;79.00
20630;BME280;17386;43.846;25.950;2023-05-09T12:22:25;102040.03;;;17.28;80.36
20630;BME280;17386;43.846;25.950;2023-05-09T12:24:51;102032.66;;;17.33;79.86
20630;BME280;17386;43.846;25.950;2023-05-09T12:27:18;102033.94;;;17.44;79.61
20630;BME280;17386;43.846;25.950;2023-05-09T12:29:44;102033.72;;;17.49;79.19
20630;BME280;17386;43.846;25.950;2023-05-09T12:32:13;102026.94;;;17.40;79.23
20630;BME280;17386;43.846;25.950;2023-05-09T12:34:40;102026.81;;;17.23;78.65
20630;BME280;17386;43.846;25.950;2023-05-09T12:37:16;102020.50;;;17.04;79.27
20630;BME280;17386;43.846;25.950;2023-05-09T12:42:33;102007.31;;;16.98;79.15
20630;BME280;17386;43.846;25.950;2023-05-09T12:45:02;102003.72;;;16.77;79.90
20630;BME280;17386;43.846;25.950;2023-05-09T12:47:29;102002.44;;;16.63;79.93